createdAt,value
2022-10-28T00:01:33.259Z,11.20
2022-10-28T00:04:02.140Z,11.20
2022-10-28T00:06:37.545Z,11.20
2022-10-28T00:09:09.663Z,11.20
2022-10-28T00:11:40.307Z,11.20
2022-10-28T00:14:09.842Z,11.20
2022-10-28T00:16:38.755Z,11.20
2022-10-28T00:19:10.250Z,11.20
2022-10-28T00:21:39.673Z,11.20
2022-10-28T00:24:09.988Z,11.20
2022-10-28T00:26:42.532Z,11.30
2022-10-28T00:29:16.803Z,11.20
2022-10-28T00:31:45.665Z,11.20
2022-10-28T00:34:16.386Z,11.30
2022-10-28T00:36:46.473Z,11.20
2022-10-28T00:39:20.065Z,11.20
2022-10-28T00:41:54.392Z,11.30
2022-10-28T00:44:40.564Z,11.30
2022-10-28T00:47:33.399Z,11.30
2022-10-28T00:50:20.601Z,11.30
2022-10-28T00:52:56.853Z,11.30
2022-10-28T00:55:26.087Z,11.30
2022-10-28T00:57:58.131Z,11.30
2022-10-28T01:00:27.132Z,11.30
2022-10-28T01:02:55.907Z,11.30
2022-10-28T01:05:27.989Z,11.30
2022-10-28T01:08:00.549Z,11.30
2022-10-28T01:10:51.578Z,11.30
2022-10-28T01:13:45.614Z,11.30
2022-10-28T01:16:42.868Z,11.30
2022-10-28T01:19:44.563Z,11.30
2022-10-28T01:22:21.716Z,11.30
2022-10-28T01:25:12.811Z,11.30
2022-10-28T01:28:15.942Z,11.30
2022-10-28T01:31:02.805Z,11.30
2022-10-28T01:33:41.745Z,11.30
2022-10-28T01:36:23.794Z,11.30
2022-10-28T01:39:02.071Z,11.30
2022-10-28T01:41:50.983Z,11.30
2022-10-28T01:44:38.560Z,11.30
2022-10-28T01:47:37.596Z,11.30
2022-10-28T01:50:14.985Z,11.30
2022-10-28T01:52:47.180Z,11.30
2022-10-28T01:55:21.911Z,11.20
2022-10-28T01:57:52.459Z,11.30
2022-10-28T02:00:20.930Z,11.20
2022-10-28T02:02:51.286Z,11.20
2022-10-28T02:05:41.206Z,11.20
2022-10-28T02:08:18.689Z,11.30
2022-10-28T02:11:03.235Z,11.20
2022-10-28T02:14:08.985Z,11.30
2022-10-28T02:16:48.748Z,11.20
2022-10-28T02:19:32.187Z,11.30
2022-10-28T02:22:00.050Z,11.30
2022-10-28T02:24:35.627Z,11.30
2022-10-28T02:27:11.117Z,11.30
2022-10-28T02:29:46.110Z,11.30
2022-10-28T02:32:20.166Z,11.30
2022-10-28T02:34:52.936Z,11.30
2022-10-28T02:37:32.973Z,11.30
2022-10-28T02:40:05.994Z,11.30
2022-10-28T02:42:40.447Z,11.30
2022-10-28T02:45:21.498Z,11.30
2022-10-28T02:47:55.367Z,11.30
2022-10-28T02:50:30.664Z,11.30
2022-10-28T02:53:02.782Z,11.30
2022-10-28T02:55:36.867Z,11.20
2022-10-28T02:58:05.917Z,11.20
2022-10-28T03:00:34.012Z,11.20
2022-10-28T03:03:01.770Z,11.20
2022-10-28T03:05:29.731Z,11.20
2022-10-28T03:07:57.508Z,11.20
2022-10-28T03:10:25.564Z,11.10
2022-10-28T03:12:53.432Z,11.20
2022-10-28T03:15:21.462Z,11.10
2022-10-28T03:17:49.197Z,11.10
2022-10-28T03:20:17.244Z,11.10
2022-10-28T03:22:45.347Z,11.10
2022-10-28T03:25:13.431Z,11.10
2022-10-28T03:27:41.774Z,11.10
2022-10-28T03:30:10.877Z,11.00
2022-10-28T03:32:43.184Z,11.00
2022-10-28T03:35:11.518Z,11.00
2022-10-28T03:37:43.813Z,11.00
2022-10-28T03:40:13.127Z,11.00
2022-10-28T03:42:42.167Z,11.00
2022-10-28T03:45:11.174Z,11.00
2022-10-28T03:47:40.212Z,11.00
2022-10-28T03:50:08.973Z,11.00
2022-10-28T03:52:36.837Z,11.00
2022-10-28T03:55:05.499Z,10.90
2022-10-28T03:57:34.238Z,10.90
2022-10-28T04:00:02.543Z,10.90
2022-10-28T04:02:39.540Z,10.90
2022-10-28T04:05:08.109Z,10.90
2022-10-28T04:07:36.180Z,10.90
2022-10-28T04:10:04.781Z,10.90
2022-10-28T04:12:32.591Z,10.90
2022-10-28T04:15:00.851Z,10.90
2022-10-28T04:17:28.669Z,10.90
2022-10-28T04:19:57.105Z,11.00
2022-10-28T04:22:25.039Z,11.00
2022-10-28T04:24:58.630Z,11.00
2022-10-28T04:27:26.511Z,11.00
2022-10-28T04:29:57.679Z,11.00
2022-10-28T04:32:28.552Z,11.00
2022-10-28T04:34:57.425Z,11.00
2022-10-28T04:37:25.378Z,11.00
2022-10-28T04:39:53.447Z,11.00
2022-10-28T04:42:21.365Z,11.00
2022-10-28T04:44:49.518Z,11.00
2022-10-28T04:47:17.864Z,11.00
2022-10-28T04:49:46.874Z,11.00
2022-10-28T04:52:15.795Z,11.10
2022-10-28T04:54:44.270Z,11.10
2022-10-28T04:57:12.262Z,11.10
2022-10-28T04:59:40.792Z,11.00
2022-10-28T05:02:11.874Z,11.00
2022-10-28T05:04:39.976Z,11.00
2022-10-28T05:07:07.763Z,11.00
2022-10-28T05:09:35.782Z,11.00
2022-10-28T05:12:03.682Z,11.00
2022-10-28T05:14:31.775Z,11.00
2022-10-28T05:16:59.743Z,11.00
2022-10-28T05:19:28.080Z,11.00
2022-10-28T05:21:55.910Z,11.00
2022-10-28T05:24:24.125Z,11.00
2022-10-28T05:26:51.919Z,11.00
2022-10-28T05:29:20.019Z,11.00
2022-10-28T05:31:48.001Z,11.00
2022-10-28T05:34:16.451Z,11.00
2022-10-28T05:36:44.356Z,11.00
2022-10-28T05:39:14.062Z,11.00
2022-10-28T05:41:41.815Z,11.00
2022-10-28T05:44:10.090Z,11.00
2022-10-28T05:46:37.823Z,11.00
2022-10-28T05:49:06.416Z,11.00
2022-10-28T05:51:34.204Z,11.00
2022-10-28T05:54:02.415Z,11.00
2022-10-28T05:56:30.137Z,11.00
2022-10-28T05:58:58.404Z,11.00
2022-10-28T06:01:26.636Z,11.00
2022-10-28T06:03:54.844Z,11.00
2022-10-28T06:06:22.667Z,11.00
2022-10-28T06:08:51.048Z,11.00
2022-10-28T06:11:17.334Z,11.00
2022-10-28T06:13:45.395Z,11.00
2022-10-28T06:16:13.484Z,11.00
2022-10-28T06:18:41.560Z,11.00
2022-10-28T06:21:09.404Z,11.00
2022-10-28T06:23:37.635Z,11.00
2022-10-28T06:26:05.959Z,11.00
2022-10-28T06:28:34.113Z,11.00
2022-10-28T06:31:07.824Z,11.00
2022-10-28T06:33:35.879Z,11.00
2022-10-28T06:36:03.935Z,11.00
2022-10-28T06:38:31.940Z,11.10
2022-10-28T06:40:59.788Z,11.10
2022-10-28T06:43:27.994Z,11.10
2022-10-28T06:45:59.622Z,11.20
2022-10-28T06:48:29.173Z,11.20
2022-10-28T06:50:58.284Z,11.20
2022-10-28T06:53:26.725Z,11.30
2022-10-28T06:55:58.702Z,11.30
2022-10-28T06:58:27.603Z,11.40
2022-10-28T07:01:07.045Z,11.40
2022-10-28T07:03:47.394Z,11.40
2022-10-28T07:06:17.292Z,11.40
2022-10-28T07:08:45.356Z,11.40
2022-10-28T07:11:13.535Z,11.50
2022-10-28T07:13:42.509Z,11.50
2022-10-28T07:16:12.533Z,11.60
2022-10-28T07:18:40.514Z,11.60
2022-10-28T07:21:08.493Z,11.60
2022-10-28T07:23:36.261Z,11.70
2022-10-28T07:26:05.785Z,11.70
2022-10-28T07:28:33.520Z,11.70
2022-10-28T07:31:02.809Z,11.80
2022-10-28T07:33:31.138Z,11.80
2022-10-28T07:35:59.147Z,11.90
2022-10-28T07:38:26.914Z,11.90
2022-10-28T07:40:54.981Z,12.00
2022-10-28T07:43:22.933Z,12.00
2022-10-28T07:45:57.123Z,12.00
2022-10-28T07:48:24.945Z,12.10
2022-10-28T07:50:52.969Z,12.10
2022-10-28T07:53:22.627Z,12.10
2022-10-28T07:55:57.371Z,12.10
2022-10-28T07:58:25.434Z,12.20
2022-10-28T08:00:53.638Z,12.20
2022-10-28T08:03:21.970Z,12.20
2022-10-28T08:05:50.148Z,12.30
2022-10-28T08:08:22.672Z,12.30
2022-10-28T08:10:50.902Z,12.30
2022-10-28T08:13:21.037Z,12.30
2022-10-28T08:15:55.905Z,12.40
2022-10-28T08:18:23.671Z,12.40
2022-10-28T08:20:51.862Z,12.50
2022-10-28T08:23:19.639Z,12.50
2022-10-28T08:25:50.301Z,12.60
2022-10-28T08:28:19.261Z,12.60
2022-10-28T08:30:57.299Z,12.60
2022-10-28T08:33:36.996Z,12.70
2022-10-28T08:36:08.078Z,12.70
2022-10-28T08:38:36.253Z,12.80
2022-10-28T08:41:40.402Z,12.80
2022-10-28T08:44:31.267Z,12.90
2022-10-28T08:47:25.668Z,12.90
2022-10-28T08:50:00.836Z,13.00
2022-10-28T08:52:46.222Z,13.00
2022-10-28T08:55:23.489Z,13.10
2022-10-28T08:57:58.893Z,13.10
2022-10-28T09:00:30.920Z,13.20
2022-10-28T09:03:13.197Z,13.20
2022-10-28T09:05:50.218Z,13.20
2022-10-28T09:08:26.667Z,13.20
2022-10-28T09:11:00.431Z,13.20
2022-10-28T09:13:36.984Z,13.30
2022-10-28T09:16:26.437Z,13.30
2022-10-28T09:19:03.268Z,13.30
2022-10-28T09:21:47.768Z,13.30
2022-10-28T09:24:46.724Z,13.40
2022-10-28T09:27:35.552Z,13.50
2022-10-28T09:30:21.477Z,13.50
2022-10-28T09:33:11.966Z,13.50
2022-10-28T09:35:46.070Z,13.60
2022-10-28T09:38:31.890Z,13.60
2022-10-28T09:41:25.906Z,13.60
2022-10-28T09:43:56.696Z,13.70
2022-10-28T09:46:28.783Z,13.70
2022-10-28T09:49:04.184Z,13.80
2022-10-28T09:51:38.222Z,13.80
2022-10-28T09:54:06.685Z,13.80
2022-10-28T09:56:34.974Z,13.80
2022-10-28T09:59:04.317Z,13.90
2022-10-28T10:01:36.925Z,13.90
2022-10-28T10:04:18.482Z,13.90
2022-10-28T10:06:49.963Z,13.90
2022-10-28T10:09:26.161Z,13.90
2022-10-28T10:11:59.163Z,14.10
2022-10-28T10:14:32.189Z,14.10
2022-10-28T10:17:27.273Z,14.10
2022-10-28T10:20:13.471Z,14.20
2022-10-28T10:22:56.458Z,14.10
2022-10-28T10:25:30.138Z,14.20
2022-10-28T10:28:14.766Z,14.20
2022-10-28T10:30:51.795Z,14.30
2022-10-28T10:33:34.273Z,14.30
2022-10-28T10:36:21.295Z,14.30
2022-10-28T10:38:55.196Z,14.40
2022-10-28T10:41:43.765Z,14.30
2022-10-28T10:44:20.995Z,14.40
2022-10-28T10:47:08.911Z,14.40
2022-10-28T10:49:37.498Z,14.40
2022-10-28T10:52:08.442Z,14.40
2022-10-28T10:54:37.274Z,14.40
2022-10-28T10:57:17.281Z,14.40
2022-10-28T10:59:50.721Z,14.30
2022-10-28T11:02:31.704Z,14.40
2022-10-28T11:05:10.722Z,14.40
2022-10-28T11:07:45.876Z,14.40
2022-10-28T11:10:28.065Z,14.40
2022-10-28T11:13:05.570Z,14.50
2022-10-28T11:15:33.939Z,14.50
2022-10-28T11:18:17.625Z,14.60
2022-10-28T11:20:58.647Z,14.60
2022-10-28T11:23:48.784Z,14.60
2022-10-28T11:26:17.783Z,14.60
2022-10-28T11:29:14.244Z,14.70
2022-10-28T11:31:57.440Z,14.70
2022-10-28T11:35:04.877Z,14.70
2022-10-28T11:37:56.749Z,14.70
2022-10-28T11:41:19.208Z,14.70
2022-10-28T11:44:03.830Z,14.70
2022-10-28T11:47:00.921Z,14.80
2022-10-28T11:50:02.643Z,14.80
2022-10-28T11:52:45.683Z,14.80
2022-10-28T11:55:44.594Z,14.80
2022-10-28T11:58:21.435Z,14.90
2022-10-28T12:01:04.547Z,14.90
2022-10-28T12:03:53.180Z,14.90
2022-10-28T12:06:54.046Z,14.90
2022-10-28T12:10:08.560Z,15.00
2022-10-28T12:12:52.234Z,15.00
2022-10-28T12:15:31.179Z,14.90
2022-10-28T12:18:08.334Z,15.00
2022-10-28T12:20:53.816Z,15.00
2022-10-28T12:23:23.735Z,15.00
2022-10-28T12:25:55.405Z,15.10
2022-10-28T12:28:43.759Z,15.10
2022-10-28T12:31:34.345Z,15.10
2022-10-28T12:34:07.215Z,15.10
2022-10-28T12:36:45.350Z,15.00
2022-10-28T12:39:21.211Z,15.00
2022-10-28T12:42:01.310Z,15.00
2022-10-28T12:44:30.194Z,15.00
2022-10-28T12:47:17.636Z,15.00
2022-10-28T12:50:16.298Z,15.00
2022-10-28T12:53:10.011Z,14.90
2022-10-28T12:56:01.805Z,14.90
2022-10-28T12:58:35.417Z,14.90
2022-10-28T13:01:10.122Z,14.90
2022-10-28T13:03:39.671Z,14.90
2022-10-28T13:06:19.870Z,14.90
2022-10-28T13:09:37.997Z,14.90
2022-10-28T13:12:16.988Z,14.90
2022-10-28T13:15:14.754Z,14.90
2022-10-28T13:18:10.577Z,14.90
2022-10-28T13:20:52.732Z,14.90
2022-10-28T13:23:43.888Z,14.90
2022-10-28T13:26:18.492Z,14.90
2022-10-28T13:28:55.323Z,14.90
2022-10-28T13:31:37.239Z,14.80
2022-10-28T13:34:09.342Z,14.90
2022-10-28T13:36:41.235Z,14.90
2022-10-28T13:39:29.467Z,14.80
2022-10-28T13:42:19.909Z,14.80
2022-10-28T13:44:48.212Z,14.80
2022-10-28T13:47:35.863Z,14.70
2022-10-28T13:50:06.846Z,14.70
2022-10-28T13:52:46.902Z,14.70
2022-10-28T13:55:24.108Z,14.70
2022-10-28T13:58:00.416Z,14.70
2022-10-28T14:03:03.562Z,14.60
2022-10-28T14:05:37.776Z,14.60
2022-10-28T14:08:33.296Z,14.60
2022-10-28T14:11:32.731Z,14.60
2022-10-28T14:14:03.673Z,14.50
2022-10-28T14:16:31.600Z,14.50
2022-10-28T14:19:10.396Z,14.50
2022-10-28T14:21:50.647Z,14.40
2022-10-28T14:24:36.558Z,14.40
2022-10-28T14:27:19.863Z,14.40
2022-10-28T14:30:18.981Z,14.40
2022-10-28T14:32:50.112Z,14.30
2022-10-28T14:35:37.851Z,14.30
2022-10-28T14:38:36.619Z,14.20
2022-10-28T14:41:18.432Z,14.20
2022-10-28T14:44:01.945Z,14.20
2022-10-28T14:46:48.417Z,14.20
2022-10-28T14:49:34.119Z,14.20
2022-10-28T14:52:15.944Z,14.10
2022-10-28T14:54:48.471Z,14.10
2022-10-28T14:57:22.532Z,14.10
2022-10-28T15:00:08.212Z,14.10
2022-10-28T15:02:39.246Z,14.10
2022-10-28T15:05:17.780Z,14.00
2022-10-28T15:07:46.919Z,14.00
2022-10-28T15:10:34.086Z,14.00
2022-10-28T15:13:03.825Z,14.00
2022-10-28T15:15:59.417Z,13.90
2022-10-28T15:18:30.506Z,13.90
2022-10-28T15:21:09.594Z,13.90
2022-10-28T15:24:07.205Z,13.80
2022-10-28T15:26:35.431Z,13.90
2022-10-28T15:29:18.648Z,13.80
2022-10-28T15:32:04.758Z,13.80
2022-10-28T15:34:48.311Z,13.80
2022-10-28T15:37:36.313Z,13.80
2022-10-28T15:40:19.541Z,13.80
2022-10-28T15:42:57.160Z,13.80
2022-10-28T15:45:42.707Z,13.70
2022-10-28T15:48:28.003Z,13.80
2022-10-28T15:51:16.562Z,13.70
2022-10-28T15:53:45.706Z,13.70
2022-10-28T15:56:24.066Z,13.70
2022-10-28T15:59:23.890Z,13.70
2022-10-28T16:02:40.067Z,13.70
2022-10-28T16:05:33.110Z,13.70
2022-10-28T16:08:14.873Z,13.70
2022-10-28T16:11:03.778Z,13.70
2022-10-28T16:13:47.388Z,13.70
2022-10-28T16:16:24.717Z,13.70
2022-10-28T16:19:20.535Z,13.70
2022-10-28T16:21:48.599Z,13.70
2022-10-28T16:24:16.249Z,13.70
2022-10-28T16:26:44.336Z,13.80
2022-10-28T16:29:12.114Z,13.80
2022-10-28T16:31:41.780Z,13.80
2022-10-28T16:34:24.701Z,13.80
2022-10-28T16:36:52.935Z,13.80
2022-10-28T16:39:20.663Z,13.80
2022-10-28T16:41:49.418Z,13.80
2022-10-28T16:44:32.229Z,13.80
2022-10-28T16:47:00.372Z,13.80
2022-10-28T16:49:28.367Z,13.80
2022-10-28T16:51:56.454Z,13.80
2022-10-28T16:54:24.146Z,13.80
2022-10-28T16:56:52.182Z,13.80
2022-10-28T16:59:19.990Z,13.80
2022-10-28T17:01:48.268Z,13.80
2022-10-28T17:04:16.116Z,13.80
2022-10-28T17:06:44.173Z,13.80
2022-10-28T17:09:27.085Z,13.70
2022-10-28T17:12:19.214Z,13.70
2022-10-28T17:14:47.606Z,13.70
2022-10-28T17:17:15.568Z,13.70
2022-10-28T17:19:45.954Z,13.70
2022-10-28T17:22:13.974Z,13.70
2022-10-28T17:24:42.102Z,13.70
2022-10-28T17:27:10.219Z,13.70
2022-10-28T17:29:38.955Z,13.70
2022-10-28T17:32:21.769Z,13.70
2022-10-28T17:34:50.087Z,13.70
2022-10-28T17:37:18.178Z,13.70
2022-10-28T17:39:46.348Z,13.80
2022-10-28T17:42:29.345Z,13.70
2022-10-28T17:44:57.597Z,13.70
2022-10-28T17:47:25.547Z,13.70
2022-10-28T17:49:53.741Z,13.70
2022-10-28T17:52:21.529Z,13.80
2022-10-28T17:54:49.680Z,13.80
2022-10-28T17:57:17.525Z,13.70
2022-10-28T17:59:45.853Z,13.70
2022-10-28T18:02:14.971Z,13.70
2022-10-28T18:04:43.113Z,13.80
2022-10-28T18:07:10.915Z,13.70
2022-10-28T18:09:40.758Z,13.70
2022-10-28T18:12:09.976Z,13.70
2022-10-28T18:14:38.183Z,13.70
2022-10-28T18:17:05.919Z,13.70
2022-10-28T18:19:48.613Z,13.70
2022-10-28T18:22:31.395Z,13.70
2022-10-28T18:24:59.423Z,13.70
2022-10-28T18:27:29.464Z,13.70
2022-10-28T18:29:57.532Z,13.80
2022-10-28T18:32:25.348Z,13.70
2022-10-28T18:35:08.299Z,13.70
2022-10-28T18:37:36.483Z,13.70
2022-10-28T18:40:04.569Z,13.70
2022-10-28T18:42:47.580Z,13.70
2022-10-28T18:45:15.747Z,13.70
2022-10-28T18:47:44.728Z,13.70
2022-10-28T18:50:12.802Z,13.70
2022-10-28T18:52:40.810Z,13.70
2022-10-28T18:55:09.545Z,13.70
2022-10-28T18:57:37.329Z,13.70
2022-10-28T19:00:18.036Z,13.70
2022-10-28T19:02:47.941Z,13.70
2022-10-28T19:05:16.209Z,13.60
2022-10-28T19:07:44.099Z,13.70
2022-10-28T19:10:12.212Z,13.70
2022-10-28T19:12:44.137Z,13.70
2022-10-28T19:15:16.331Z,13.70
2022-10-28T19:17:59.079Z,13.60
2022-10-28T19:20:27.086Z,13.70
2022-10-28T19:22:55.110Z,13.70
2022-10-28T19:25:23.014Z,13.70
2022-10-28T19:27:51.212Z,13.70
2022-10-28T19:30:18.877Z,13.70
2022-10-28T19:32:46.898Z,13.70
2022-10-28T19:35:15.262Z,13.70
2022-10-28T19:37:43.325Z,13.70
2022-10-28T19:40:11.491Z,13.70
2022-10-28T19:42:40.297Z,13.70
2022-10-28T19:45:08.961Z,13.70
2022-10-28T19:47:37.002Z,13.70
2022-10-28T19:50:05.145Z,13.70
2022-10-28T19:52:33.488Z,13.80
2022-10-28T19:55:01.261Z,13.80
2022-10-28T19:57:29.430Z,13.80
2022-10-28T19:59:57.127Z,13.90
2022-10-28T20:02:25.551Z,13.90
2022-10-28T20:04:57.304Z,13.90
2022-10-28T20:07:25.357Z,13.90
2022-10-28T20:09:54.711Z,13.90
2022-10-28T20:12:37.656Z,13.90
2022-10-28T20:15:06.887Z,14.00
2022-10-28T20:17:49.680Z,14.00
2022-10-28T20:20:34.810Z,14.00
2022-10-28T20:23:17.577Z,14.10
2022-10-28T20:25:54.097Z,14.00
2022-10-28T20:28:22.405Z,14.10
2022-10-28T20:31:11.013Z,14.10
2022-10-28T20:33:41.760Z,14.10
2022-10-28T20:36:28.602Z,14.10
2022-10-28T20:38:59.753Z,14.10
2022-10-28T20:41:33.109Z,14.10
2022-10-28T20:44:02.887Z,14.00
2022-10-28T20:46:48.323Z,14.00
2022-10-28T20:49:16.717Z,14.00
2022-10-28T20:51:44.577Z,14.00
2022-10-28T20:54:27.312Z,14.00
2022-10-28T20:56:55.319Z,14.00
2022-10-28T20:59:23.081Z,14.00
2022-10-28T21:01:51.406Z,14.00
2022-10-28T21:04:34.521Z,13.90
2022-10-28T21:07:02.601Z,13.90
2022-10-28T21:09:30.261Z,13.90
2022-10-28T21:11:58.283Z,13.90
2022-10-28T21:14:41.044Z,13.80
2022-10-28T21:17:23.787Z,13.80
2022-10-28T21:20:07.077Z,13.80
2022-10-28T21:22:35.740Z,13.80
2022-10-28T21:25:04.038Z,13.80
2022-10-28T21:27:32.067Z,13.70
2022-10-28T21:30:00.053Z,13.70
2022-10-28T21:32:28.767Z,13.80
2022-10-28T21:34:56.438Z,13.70
2022-10-28T21:37:24.532Z,13.70
2022-10-28T21:39:53.555Z,13.70
2022-10-28T21:42:24.238Z,13.60
2022-10-28T21:44:52.124Z,13.70
2022-10-28T21:50:08.476Z,13.60
2022-10-28T21:52:36.887Z,13.60
2022-10-28T21:55:14.603Z,13.50
2022-10-28T21:57:48.904Z,13.60
2022-10-28T22:00:16.683Z,13.50
2022-10-28T22:02:44.588Z,13.50
2022-10-28T22:05:12.736Z,13.50
2022-10-28T22:07:40.461Z,13.50
2022-10-28T22:10:08.992Z,13.50
2022-10-28T22:12:36.684Z,13.50
2022-10-28T22:15:05.233Z,13.50
2022-10-28T22:17:34.270Z,13.50
2022-10-28T22:20:16.994Z,13.50
2022-10-28T22:22:59.984Z,13.50
2022-10-28T22:25:28.122Z,13.50
2022-10-28T22:27:55.792Z,13.40
2022-10-28T22:30:38.575Z,13.50
2022-10-28T22:33:06.728Z,13.40
2022-10-28T22:35:59.738Z,13.40
2022-10-28T22:38:28.721Z,13.50
2022-10-28T22:41:06.258Z,13.50
2022-10-28T22:43:34.805Z,13.40
2022-10-28T22:46:18.430Z,13.40
2022-10-28T22:48:46.851Z,13.50
2022-10-28T22:51:14.889Z,13.50
2022-10-28T22:53:44.172Z,13.50
2022-10-28T22:56:16.935Z,13.50
2022-10-28T22:59:01.968Z,13.50
2022-10-28T23:01:30.612Z,13.40
2022-10-28T23:03:58.875Z,13.40
2022-10-28T23:06:28.010Z,13.40
2022-10-28T23:09:10.829Z,13.40
2022-10-28T23:11:38.844Z,13.40
2022-10-28T23:14:06.662Z,13.40
2022-10-28T23:16:49.797Z,13.40
2022-10-28T23:19:17.790Z,13.40
2022-10-28T23:21:45.512Z,13.40
2022-10-28T23:24:13.623Z,13.40
2022-10-28T23:26:42.989Z,13.50
2022-10-28T23:29:10.906Z,13.40
2022-10-28T23:31:38.934Z,13.40
2022-10-28T23:34:21.673Z,13.40
2022-10-28T23:36:54.190Z,13.40
2022-10-28T23:39:22.197Z,13.40
2022-10-28T23:41:49.886Z,13.40
2022-10-28T23:44:17.970Z,13.40
2022-10-28T23:46:45.742Z,13.40
2022-10-28T23:49:13.651Z,13.40
2022-10-28T23:51:41.689Z,13.40
2022-10-28T23:54:12.569Z,13.50
2022-10-28T23:56:55.283Z,13.50
2022-10-28T23:59:23.345Z,13.50
